»·PEaware :: TXA717 KPRC-KFUL

TXA717 :: KPRC-KFUL

FLIGHT INFORMATION

Flight Status: Arrived
Operator: Unknown
More flights by this operator :: More flights under this callsign
Pilot: Ty S. (2873)
Aircraft: BEECH AIRCRAFT PREMIER
(PRM1)
More flights by this aircraft type
Origin: KPRC Love
United States
Destination: KFUL Fullerton Mun
United States
More flights between these airports :: More routes between these airports
Route: +PRC3 DRK J96 PSP KAYOH7
File this flight plan on PilotEdge
Remarks:
Altitude:
(Current/Filed)
30,000ft
Speed:
(Current/Filed)
450kts
Departed: 24-Jan-20 06:41 PM
Arrived: 24-Jan-20 07:35 PM
Distance/Time
Traveled:
280nm/0:54
Distance/Time
To Go:
Arrived

Flight Plot

Page will automatically refresh every two minutes.

Flight plan parsing failed; only flown route is shown


Map Options




Map Legend


Flown Route
Filed Route
Departure Airport
Arrival Airport
Navaid (VOR, NDB)
Fix

Horizontal Profiles

Position Reports

Time Latitude Longitude Heading Altitude Ground
Speed
24-Jan-20 18:19 34.646774 -112.424578 275 5048ft 0kts
24-Jan-20 18:20 34.646774 -112.424578 275 5048ft 0kts
24-Jan-20 18:21 34.646774 -112.424578 275 5048ft 0kts
24-Jan-20 18:22 34.646774 -112.424578 275 5048ft 0kts
24-Jan-20 18:23 34.646774 -112.424578 275 5048ft 0kts
24-Jan-20 18:24 34.646774 -112.424578 275 5048ft 0kts
24-Jan-20 18:25 34.646774 -112.424578 275 5048ft 0kts
24-Jan-20 18:26 34.646774 -112.424578 275 5048ft 0kts
24-Jan-20 18:27 34.646774 -112.424578 275 5048ft 0kts
24-Jan-20 18:28 34.646774 -112.424578 275 5048ft 0kts
24-Jan-20 18:29 34.646774 -112.424578 275 5048ft 0kts
24-Jan-20 18:30 34.646774 -112.424578 275 5048ft 0kts
24-Jan-20 18:31 34.646774 -112.424578 275 5048ft 0kts
24-Jan-20 18:32 34.646774 -112.424578 275 5048ft 0kts
24-Jan-20 18:33 34.646991 -112.424921 315 5048ft 0kts
24-Jan-20 18:34 34.647275 -112.425165 346 5048ft 3kts
24-Jan-20 18:35 34.649437 -112.423095 40 5048ft 14kts
24-Jan-20 18:36 34.652680 -112.419656 41 5048ft 17kts
24-Jan-20 18:37 34.656712 -112.415374 39 5048ft 17kts
24-Jan-20 18:38 34.660776 -112.410372 39 5048ft 17kts
24-Jan-20 18:39 34.661194 -112.410125 355 5048ft 2kts
24-Jan-20 18:40 34.658961 -112.414729 221 5048ft 86kts
24-Jan-20 18:41 34.624639 -112.448951 218 6784ft 186kts
24-Jan-20 18:42 34.626274 -112.490323 353 9586ft 181kts
24-Jan-20 18:43 34.689233 -112.492748 316 11223ft 254kts
24-Jan-20 18:44 34.677543 -112.576064 254 12999ft 306kts
24-Jan-20 18:45 34.649424 -112.682299 254 14672ft 327kts
24-Jan-20 18:46 34.622779 -112.783083 255 17648ft 303kts
24-Jan-20 18:47 34.598144 -112.875967 256 20626ft 275kts
24-Jan-20 18:48 34.573521 -112.968612 255 22173ft 296kts
24-Jan-20 18:49 34.547676 -113.065444 255 23765ft 307kts
24-Jan-20 18:50 34.521016 -113.164787 255 25333ft 314kts
24-Jan-20 18:51 34.493642 -113.266466 255 26745ft 321kts
24-Jan-20 18:52 34.465617 -113.370223 255 28022ft 327kts
24-Jan-20 18:53 34.437056 -113.475512 255 29186ft 333kts
24-Jan-20 18:54 34.407695 -113.583446 255 30031ft 346kts
24-Jan-20 18:55 34.377002 -113.695728 254 30043ft 376kts
24-Jan-20 18:56 34.342913 -113.819828 254 30038ft 400kts
24-Jan-20 18:57 34.306925 -113.950325 254 30042ft 416kts
24-Jan-20 18:58 34.269693 -114.084715 253 30042ft 426kts
24-Jan-20 18:59 34.231661 -114.221280 254 30038ft 431kts
24-Jan-20 19:00 34.193160 -114.358859 253 30034ft 434kts
24-Jan-20 19:01 34.154219 -114.497372 253 30033ft 436kts
24-Jan-20 19:02 34.114985 -114.636178 253 30032ft 437kts
24-Jan-20 19:03 34.089909 -114.778020 263 30040ft 435kts
24-Jan-20 19:04 34.071625 -114.922403 263 30038ft 435kts
24-Jan-20 19:05 34.053072 -115.066717 264 29222ft 435kts
24-Jan-20 19:06 34.034690 -115.209183 265 27223ft 427kts
24-Jan-20 19:07 34.016447 -115.349719 264 25233ft 422kts
24-Jan-20 19:08 33.998151 -115.488737 265 24056ft 417kts
24-Jan-20 19:09 33.979716 -115.627569 264 24032ft 425kts
24-Jan-20 19:10 33.961389 -115.764402 264 24023ft 431kts
24-Jan-20 19:11 33.942096 -115.907239 264 24005ft 435kts
24-Jan-20 19:12 33.922451 -116.051325 264 23989ft 436kts
24-Jan-20 19:13 33.903311 -116.190428 264 22039ft 407kts
24-Jan-20 19:14 33.885202 -116.321175 264 20049ft 398kts
24-Jan-20 19:16 33.871822 -116.451286 274 18024ft 386kts
24-Jan-20 19:17 33.877079 -116.577505 276 16054ft 370kts
24-Jan-20 19:18 33.882670 -116.697597 275 15966ft 360kts
24-Jan-20 19:19 33.888194 -116.817984 275 15746ft 369kts
24-Jan-20 19:20 33.859147 -116.940125 251 13852ft 387kts
24-Jan-20 19:21 33.823179 -117.046681 251 11782ft 300kts
24-Jan-20 19:22 33.793171 -117.135766 250 9760ft 281kts
24-Jan-20 19:23 33.798680 -117.225901 281 7761ft 273kts
24-Jan-20 19:24 33.815575 -117.313688 291 5751ft 266kts
24-Jan-20 19:25 33.841557 -117.396019 291 4968ft 260kts
24-Jan-20 19:26 33.867270 -117.477417 291 4765ft 257kts
24-Jan-20 19:27 33.891617 -117.554443 291 3952ft 242kts
24-Jan-20 19:28 33.915873 -117.631561 291 3945ft 248kts
24-Jan-20 19:29 33.924452 -117.712454 257 3059ft 241kts
24-Jan-20 19:30 33.908568 -117.787713 261 2698ft 219kts
24-Jan-20 19:31 33.897960 -117.849883 256 2185ft 155kts
24-Jan-20 19:32 33.888012 -117.894171 255 1778ft 124kts
24-Jan-20 19:33 33.879991 -117.935170 260 778ft 125kts
24-Jan-20 19:34 33.872782 -117.975867 257 111ft 118kts
24-Jan-20 19:35 33.870648 -117.984572 151 103ft 0kts
24-Jan-20 19:35 33.871072 -117.982536 77 103ft 12kts
24-Jan-20 19:37 33.870786 -117.980941 58 103ft 0kts
24-Jan-20 19:38 33.870786 -117.980941 58 103ft 0kts
24-Jan-20 19:38 33.870786 -117.980941 58 103ft 0kts
24-Jan-20 19:39 33.870786 -117.980941 58 103ft 0kts
24-Jan-20 19:41 33.870786 -117.980941 58 103ft 0kts
24-Jan-20 19:41 33.870786 -117.980941 58 103ft 0kts

Navigation Log

Ident Type
Flight plan parsing failed, navigation log unavailable